createdAt,value
2022-09-28T00:00:48.776Z,70.55
2022-09-28T00:03:53.123Z,70.49
2022-09-28T00:06:55.787Z,70.07
2022-09-28T00:09:58.359Z,69.88
2022-09-28T00:13:02.824Z,70.05
2022-09-28T00:16:07.447Z,69.99
2022-09-28T00:19:10.863Z,69.93
2022-09-28T00:22:13.421Z,70.05
2022-09-28T00:25:17.014Z,69.20
2022-09-28T00:28:21.106Z,69.48
2022-09-28T00:31:25.082Z,70.22
2022-09-28T00:34:28.399Z,70.16
2022-09-28T00:37:31.118Z,70.73
2022-09-28T00:40:33.857Z,70.77
2022-09-28T00:43:38.138Z,70.25
2022-09-28T00:46:41.217Z,70.44
2022-09-28T00:49:46.296Z,69.99
2022-09-28T00:52:54.425Z,69.93
2022-09-28T00:56:01.737Z,70.91
2022-09-28T00:59:05.885Z,70.61
2022-09-28T01:02:10.494Z,70.72
2022-09-28T01:05:14.282Z,69.48
2022-09-28T01:08:21.240Z,70.35
2022-09-28T01:11:23.957Z,71.67
2022-09-28T01:14:28.044Z,70.70
2022-09-28T01:17:39.952Z,70.98
2022-09-28T01:21:01.008Z,70.97
2022-09-28T01:24:30.959Z,71.47
2022-09-28T01:27:39.524Z,71.83
2022-09-28T01:30:47.326Z,71.41
2022-09-28T01:33:56.569Z,70.18
2022-09-28T01:37:05.566Z,69.59
2022-09-28T01:40:11.185Z,70.97
2022-09-28T01:43:20.140Z,72.38
2022-09-28T01:46:26.366Z,71.14
2022-09-28T01:49:35.180Z,70.77
2022-09-28T01:52:44.275Z,71.52
2022-09-28T01:55:51.084Z,70.57
2022-09-28T01:59:00.782Z,70.03
2022-09-28T02:02:07.481Z,70.96
2022-09-28T02:05:16.158Z,69.85
2022-09-28T02:08:25.511Z,71.67
2022-09-28T02:11:28.729Z,70.32
2022-09-28T02:14:35.085Z,70.56
2022-09-28T02:17:38.102Z,69.00
2022-09-28T02:20:43.680Z,69.24
2022-09-28T02:23:55.255Z,69.44
2022-09-28T02:27:01.768Z,70.44
2022-09-28T02:30:07.880Z,70.32
2022-09-28T02:33:14.847Z,71.09
2022-09-28T02:36:17.997Z,69.80
2022-09-28T02:39:20.789Z,71.03
2022-09-28T02:42:29.161Z,71.10
2022-09-28T02:45:52.335Z,70.46
2022-09-28T02:49:22.591Z,70.53
2022-09-28T02:52:44.062Z,70.19
2022-09-28T02:55:59.711Z,70.09
2022-09-28T02:59:13.934Z,70.72
2022-09-28T03:02:27.456Z,69.95
2022-09-28T03:05:39.863Z,70.77
2022-09-28T03:08:49.291Z,71.43
2022-09-28T03:11:55.552Z,70.47
2022-09-28T03:15:09.275Z,70.32
2022-09-28T03:18:13.362Z,71.46
2022-09-28T03:21:16.501Z,71.76
2022-09-28T03:24:19.067Z,71.24
2022-09-28T03:27:21.897Z,71.27
2022-09-28T03:30:24.492Z,71.50
2022-09-28T03:33:28.520Z,71.80
2022-09-28T03:36:31.082Z,70.25
2022-09-28T03:39:33.670Z,71.44
2022-09-28T03:42:37.686Z,71.50
2022-09-28T03:45:40.285Z,71.87
2022-09-28T03:48:44.338Z,71.91
2022-09-28T03:51:47.819Z,71.22
2022-09-28T03:54:50.521Z,71.50
2022-09-28T03:57:56.197Z,71.54
2022-09-28T04:01:03.028Z,71.80
2022-09-28T04:04:07.103Z,72.21
2022-09-28T04:07:09.643Z,72.11
2022-09-28T04:10:12.354Z,72.65
2022-09-28T04:13:15.212Z,72.36
2022-09-28T04:16:18.963Z,71.34
2022-09-28T04:19:23.266Z,71.85
2022-09-28T04:22:25.822Z,70.34
2022-09-28T04:25:28.442Z,70.50
2022-09-28T04:28:48.725Z,71.24
2022-09-28T04:31:55.056Z,71.01
2022-09-28T04:34:59.153Z,71.04
2022-09-28T04:38:01.690Z,71.28
2022-09-28T04:41:04.936Z,71.27
2022-09-28T04:44:07.911Z,71.61
2022-09-28T04:47:11.315Z,71.07
2022-09-28T04:50:15.473Z,69.71
2022-09-28T04:53:18.031Z,71.15
2022-09-28T04:56:21.290Z,71.80
2022-09-28T04:59:24.091Z,72.12
2022-09-28T05:02:27.755Z,71.53
2022-09-28T05:05:31.675Z,71.68
2022-09-28T05:08:35.373Z,71.07
2022-09-28T05:11:37.943Z,71.28
2022-09-28T05:14:40.777Z,69.87
2022-09-28T05:17:43.835Z,71.68
2022-09-28T05:20:48.079Z,71.11
2022-09-28T05:23:50.762Z,70.86
2022-09-28T05:26:53.314Z,71.53
2022-09-28T05:29:55.969Z,72.26
2022-09-28T05:32:58.742Z,72.75
2022-09-28T05:36:03.144Z,72.91
2022-09-28T05:39:06.101Z,73.15
2022-09-28T05:42:08.781Z,72.44
2022-09-28T05:45:12.035Z,73.95
2022-09-28T05:48:14.985Z,73.54
2022-09-28T05:51:19.272Z,73.45
2022-09-28T05:54:22.023Z,74.33
2022-09-28T05:57:24.579Z,74.46
2022-09-28T06:00:27.790Z,75.06
2022-09-28T06:03:30.519Z,75.28
2022-09-28T06:06:35.713Z,74.96
2022-09-28T06:09:38.281Z,74.43
2022-09-28T06:12:41.238Z,74.64
2022-09-28T06:15:44.818Z,74.41
2022-09-28T06:18:47.386Z,73.33
2022-09-28T06:21:51.337Z,74.28
2022-09-28T06:24:53.937Z,74.43
2022-09-28T06:27:57.783Z,75.35
2022-09-28T06:31:01.135Z,74.20
2022-09-28T06:34:03.721Z,73.60
2022-09-28T06:37:07.614Z,71.93
2022-09-28T06:40:10.623Z,72.53
2022-09-28T06:43:15.283Z,70.62
2022-09-28T06:46:18.058Z,71.81
2022-09-28T06:49:20.621Z,74.11
2022-09-28T06:52:24.892Z,69.72
2022-09-28T06:55:28.202Z,67.00
2022-09-28T06:58:32.365Z,64.85
2022-09-28T07:01:35.001Z,63.46
2022-09-28T07:04:37.895Z,62.53
2022-09-28T07:07:42.869Z,60.46
2022-09-28T07:10:47.672Z,61.53
2022-09-28T07:13:51.559Z,59.60
2022-09-28T07:17:12.546Z,59.14
2022-09-28T07:20:19.393Z,57.04
2022-09-28T07:23:24.371Z,55.37
2022-09-28T07:26:26.980Z,57.77
2022-09-28T07:29:29.545Z,58.72
2022-09-28T07:32:34.448Z,53.24
2022-09-28T07:35:37.171Z,54.12
2022-09-28T07:38:41.334Z,56.59
2022-09-28T07:41:44.334Z,55.15
2022-09-28T07:44:47.069Z,55.62
2022-09-28T07:47:49.747Z,57.21
2022-09-28T07:50:53.733Z,56.95
2022-09-28T07:53:57.646Z,57.76
2022-09-28T07:57:00.311Z,57.05
2022-09-28T08:00:05.746Z,57.55
2022-09-28T08:03:08.298Z,59.02
2022-09-28T08:06:12.741Z,58.40
2022-09-28T08:09:17.620Z,59.85
2022-09-28T08:12:21.083Z,58.67
2022-09-28T08:15:23.999Z,56.70
2022-09-28T08:18:26.620Z,58.77
2022-09-28T08:21:46.278Z,59.03
2022-09-28T08:24:50.564Z,59.05
2022-09-28T08:27:53.240Z,59.10
2022-09-28T08:30:55.982Z,57.50
2022-09-28T08:33:58.777Z,58.82
2022-09-28T08:37:01.485Z,59.97
2022-09-28T08:40:06.418Z,61.10
2022-09-28T08:43:25.081Z,60.72
2022-09-28T08:46:32.598Z,61.07
2022-09-28T08:49:38.709Z,60.68
2022-09-28T08:52:41.573Z,60.31
2022-09-28T08:55:46.648Z,59.33
2022-09-28T08:58:55.493Z,58.75
2022-09-28T09:02:00.652Z,59.18
2022-09-28T09:05:06.848Z,59.04
2022-09-28T09:08:31.207Z,60.12
2022-09-28T09:11:50.522Z,60.39
2022-09-28T09:15:05.482Z,58.12
2022-09-28T09:18:22.358Z,56.96
2022-09-28T09:21:40.650Z,57.68
2022-09-28T09:24:50.004Z,58.77
2022-09-28T09:28:19.630Z,57.84
2022-09-28T09:31:40.475Z,54.57
2022-09-28T09:35:10.301Z,55.85
2022-09-28T09:38:33.977Z,53.31
2022-09-28T09:41:49.317Z,54.96
2022-09-28T09:45:24.939Z,48.49
2022-09-28T09:48:32.289Z,47.87
2022-09-28T09:51:42.969Z,47.81
2022-09-28T09:54:50.102Z,47.59
2022-09-28T09:57:55.638Z,48.09
2022-09-28T10:01:08.047Z,47.49
2022-09-28T10:04:18.808Z,47.90
2022-09-28T10:07:25.456Z,44.58
2022-09-28T10:10:30.956Z,43.93
2022-09-28T10:13:34.109Z,43.34
2022-09-28T10:16:38.309Z,43.52
2022-09-28T10:19:41.023Z,44.87
2022-09-28T10:22:45.311Z,47.16
2022-09-28T10:25:52.346Z,47.55
2022-09-28T10:28:59.204Z,48.79
2022-09-28T10:32:10.657Z,49.70
2022-09-28T10:35:22.573Z,50.69
2022-09-28T10:38:25.508Z,51.40
2022-09-28T10:41:28.130Z,52.41
2022-09-28T10:44:33.586Z,50.64
2022-09-28T10:47:37.768Z,51.53
2022-09-28T10:50:41.778Z,52.53
2022-09-28T10:54:00.242Z,51.72
2022-09-28T10:57:03.008Z,52.89
2022-09-28T11:00:08.307Z,52.57
2022-09-28T11:03:21.463Z,53.69
2022-09-28T11:06:26.020Z,52.05
2022-09-28T11:09:31.614Z,52.09
2022-09-28T11:12:43.589Z,51.12
2022-09-28T11:15:46.534Z,49.81
2022-09-28T11:18:50.489Z,51.08
2022-09-28T11:21:53.404Z,51.43
2022-09-28T11:25:14.537Z,51.31
2022-09-28T11:28:25.525Z,52.00
2022-09-28T11:31:30.116Z,50.34
2022-09-28T11:34:57.857Z,52.42
2022-09-28T11:38:16.512Z,52.14
2022-09-28T11:41:32.174Z,53.34
2022-09-28T11:44:41.617Z,52.73
2022-09-28T11:47:52.424Z,51.76
2022-09-28T11:51:01.309Z,52.64
2022-09-28T11:54:14.380Z,52.43
2022-09-28T11:57:21.748Z,54.41
2022-09-28T12:00:24.798Z,55.26
2022-09-28T12:03:36.528Z,54.69
2022-09-28T12:06:46.136Z,54.99
2022-09-28T12:09:55.749Z,53.47
2022-09-28T12:13:02.061Z,53.98
2022-09-28T12:19:35.964Z,54.77
2022-09-28T12:22:46.862Z,55.45
2022-09-28T12:25:56.019Z,53.65
2022-09-28T12:29:01.989Z,55.32
2022-09-28T12:32:13.868Z,53.93
2022-09-28T12:35:25.263Z,53.45
2022-09-28T12:38:54.175Z,53.76
2022-09-28T12:42:23.433Z,54.64
2022-09-28T12:45:53.188Z,53.26
2022-09-28T12:53:03.082Z,54.07
2022-09-28T12:56:16.816Z,52.72
2022-09-28T12:59:29.841Z,53.69
2022-09-28T13:03:12.267Z,53.64
2022-09-28T13:06:46.246Z,54.03
2022-09-28T13:10:01.417Z,51.97
2022-09-28T13:13:20.168Z,54.44
2022-09-28T13:16:30.150Z,53.97
2022-09-28T13:19:40.702Z,52.94
2022-09-28T13:22:50.833Z,52.46
2022-09-28T13:25:58.131Z,52.84
2022-09-28T13:29:06.146Z,50.04
2022-09-28T13:32:12.055Z,51.23
2022-09-28T13:35:19.313Z,52.22
2022-09-28T13:38:47.243Z,53.72
2022-09-28T13:41:50.782Z,53.06
2022-09-28T13:45:09.512Z,53.01
2022-09-28T13:48:17.031Z,52.97
2022-09-28T13:51:38.690Z,52.84
2022-09-28T13:55:00.212Z,52.80
2022-09-28T13:58:06.571Z,51.85
2022-09-28T14:01:14.054Z,51.22
2022-09-28T14:04:19.836Z,51.94
2022-09-28T14:07:26.294Z,52.39
2022-09-28T14:10:48.863Z,51.77
2022-09-28T14:14:07.215Z,52.14
2022-09-28T14:17:51.755Z,53.44
2022-09-28T14:21:20.090Z,51.82
2022-09-28T14:24:39.862Z,52.97
2022-09-28T14:28:01.369Z,51.59
2022-09-28T14:31:11.145Z,51.21
2022-09-28T14:34:37.689Z,51.48
2022-09-28T14:37:59.831Z,52.53
2022-09-28T14:41:12.690Z,51.74
2022-09-28T14:44:17.122Z,51.55
2022-09-28T14:47:27.277Z,52.29
2022-09-28T14:50:31.408Z,52.84
2022-09-28T14:53:39.778Z,52.45
2022-09-28T14:56:45.677Z,52.36
2022-09-28T14:59:48.399Z,52.19
2022-09-28T15:02:53.166Z,54.02
2022-09-28T15:05:57.175Z,54.19
2022-09-28T15:08:59.734Z,54.27
2022-09-28T15:12:03.947Z,53.23
2022-09-28T15:15:19.071Z,55.02
2022-09-28T15:18:53.904Z,55.53
2022-09-28T15:21:57.910Z,54.98
2022-09-28T15:25:03.020Z,55.08
2022-09-28T15:28:19.095Z,55.27
2022-09-28T15:31:24.270Z,55.85
2022-09-28T15:34:49.422Z,56.00
2022-09-28T15:37:55.381Z,56.96
2022-09-28T15:40:58.393Z,56.76
2022-09-28T15:44:20.141Z,57.11
2022-09-28T15:47:28.039Z,56.83
2022-09-28T15:50:31.797Z,56.99
2022-09-28T15:53:35.749Z,57.20
2022-09-28T15:56:52.484Z,58.85
2022-09-28T15:59:56.869Z,59.11
2022-09-28T16:03:01.605Z,59.99
2022-09-28T16:06:08.741Z,60.48
2022-09-28T16:12:48.150Z,62.52
2022-09-28T16:15:58.179Z,63.41
2022-09-28T16:19:02.073Z,63.82
2022-09-28T16:22:07.935Z,64.14
2022-09-28T16:25:19.216Z,63.81
2022-09-28T16:28:51.647Z,64.79
2022-09-28T16:31:54.249Z,64.41
2022-09-28T16:35:18.066Z,64.40
2022-09-28T16:38:20.967Z,65.46
2022-09-28T16:41:26.951Z,66.37
2022-09-28T16:44:31.812Z,66.01
2022-09-28T16:47:35.049Z,66.06
2022-09-28T16:50:37.600Z,66.10
2022-09-28T16:53:57.892Z,67.08
2022-09-28T16:57:01.463Z,66.97
2022-09-28T17:00:06.352Z,67.32
2022-09-28T17:03:14.574Z,67.55
2022-09-28T17:06:18.943Z,67.26
2022-09-28T17:09:22.324Z,67.89
2022-09-28T17:12:29.091Z,67.34
2022-09-28T17:15:33.109Z,66.63
2022-09-28T17:18:39.034Z,66.39
2022-09-28T17:21:41.863Z,67.17
2022-09-28T17:24:45.522Z,66.89
2022-09-28T17:27:49.644Z,67.83
2022-09-28T17:30:53.825Z,67.51
2022-09-28T17:33:56.602Z,67.35
2022-09-28T17:36:59.240Z,68.24
2022-09-28T17:40:02.320Z,67.75
2022-09-28T17:43:05.715Z,67.71
2022-09-28T17:46:25.551Z,68.24
2022-09-28T17:49:28.415Z,68.06
2022-09-28T17:52:32.174Z,67.94
2022-09-28T17:55:36.661Z,68.26
2022-09-28T17:58:39.533Z,68.06
2022-09-28T18:01:43.667Z,68.08
2022-09-28T18:04:52.311Z,67.51
2022-09-28T18:07:55.328Z,68.24
2022-09-28T18:10:57.884Z,68.78
2022-09-28T18:14:00.729Z,69.20
2022-09-28T18:17:04.799Z,68.52
2022-09-28T18:20:10.029Z,69.56
2022-09-28T18:23:12.707Z,69.63
2022-09-28T18:26:16.739Z,69.18
2022-09-28T18:29:19.498Z,69.03
2022-09-28T18:32:23.773Z,69.22
2022-09-28T18:35:26.466Z,69.84
2022-09-28T18:38:29.069Z,69.85
2022-09-28T18:41:31.742Z,69.86
2022-09-28T18:44:34.662Z,69.90
2022-09-28T18:47:39.057Z,69.92
2022-09-28T18:50:43.245Z,70.08
2022-09-28T18:53:46.144Z,70.41
2022-09-28T18:56:50.229Z,69.94
2022-09-28T18:59:52.921Z,70.29
2022-09-28T19:02:57.062Z,70.31
2022-09-28T19:05:59.714Z,70.34
2022-09-28T19:09:02.531Z,70.65
2022-09-28T19:12:05.370Z,70.74
2022-09-28T19:15:08.767Z,70.62
2022-09-28T19:18:12.790Z,70.71
2022-09-28T19:21:16.665Z,70.28
2022-09-28T19:24:20.030Z,70.76
2022-09-28T19:27:22.578Z,71.16
2022-09-28T19:30:25.274Z,70.98
2022-09-28T19:33:29.473Z,71.00
2022-09-28T19:36:32.947Z,71.60
2022-09-28T19:39:35.591Z,71.20
2022-09-28T19:42:39.512Z,71.77
2022-09-28T19:45:42.837Z,71.83
2022-09-28T19:48:47.351Z,72.16
2022-09-28T19:52:11.489Z,71.04
2022-09-28T19:55:13.651Z,71.32
2022-09-28T19:58:16.366Z,73.20
2022-09-28T20:01:19.061Z,77.19
2022-09-28T20:04:23.771Z,76.15
2022-09-28T20:07:26.351Z,74.73
2022-09-28T20:10:29.505Z,71.08
2022-09-28T20:13:33.754Z,70.42
2022-09-28T20:16:37.749Z,71.39
2022-09-28T20:19:41.811Z,71.25
2022-09-28T20:22:44.417Z,69.76
2022-09-28T20:25:47.141Z,70.05
2022-09-28T20:28:49.754Z,70.36
2022-09-28T20:31:52.486Z,69.55
2022-09-28T20:34:56.494Z,70.40
2022-09-28T20:38:07.666Z,71.19
2022-09-28T20:41:11.091Z,70.10
2022-09-28T20:44:13.795Z,71.41
2022-09-28T20:47:16.547Z,71.49
2022-09-28T20:50:21.928Z,70.60
2022-09-28T20:53:24.651Z,70.22
2022-09-28T20:56:28.979Z,69.69
2022-09-28T20:59:31.544Z,70.64
2022-09-28T21:02:34.291Z,70.71
2022-09-28T21:05:38.353Z,71.19
2022-09-28T21:08:40.940Z,70.02
2022-09-28T21:11:43.509Z,70.77
2022-09-28T21:14:46.073Z,71.46
2022-09-28T21:17:48.851Z,71.30
2022-09-28T21:20:52.899Z,71.30
2022-09-28T21:23:56.442Z,71.42
2022-09-28T21:26:59.552Z,71.01
2022-09-28T21:30:02.100Z,70.35
2022-09-28T21:33:04.856Z,71.28
2022-09-28T21:36:09.899Z,70.65
2022-09-28T21:39:12.460Z,72.60
2022-09-28T21:42:15.187Z,71.66
2022-09-28T21:45:17.856Z,72.00
2022-09-28T21:48:21.114Z,71.62
2022-09-28T21:51:25.225Z,73.08
2022-09-28T21:54:28.859Z,71.86
2022-09-28T21:57:31.555Z,72.16
2022-09-28T22:00:34.518Z,72.39
2022-09-28T22:03:39.041Z,71.67
2022-09-28T22:06:43.107Z,70.52
2022-09-28T22:09:47.132Z,71.04
2022-09-28T22:12:52.184Z,70.39
2022-09-28T22:15:54.804Z,71.61
2022-09-28T22:18:57.572Z,71.61
2022-09-28T22:22:01.701Z,70.79
2022-09-28T22:25:04.455Z,70.99
2022-09-28T22:28:07.145Z,70.32
2022-09-28T22:31:09.743Z,71.36
2022-09-28T22:34:12.529Z,71.28
2022-09-28T22:37:16.545Z,71.09
2022-09-28T22:40:19.920Z,71.22
2022-09-28T22:43:24.432Z,71.31
2022-09-28T22:46:28.796Z,71.91
2022-09-28T22:49:32.441Z,71.33
2022-09-28T22:52:36.462Z,71.32
2022-09-28T22:55:38.986Z,70.04
2022-09-28T22:58:41.873Z,71.46
2022-09-28T23:01:44.478Z,71.69
2022-09-28T23:04:47.195Z,70.96
2022-09-28T23:07:51.333Z,70.63
2022-09-28T23:10:53.938Z,70.86
2022-09-28T23:13:58.246Z,70.77
2022-09-28T23:17:00.808Z,70.12
2022-09-28T23:20:03.945Z,71.26
2022-09-28T23:23:07.976Z,71.40
2022-09-28T23:26:14.382Z,70.92
2022-09-28T23:29:17.123Z,71.81
2022-09-28T23:32:19.804Z,72.36
2022-09-28T23:35:22.741Z,70.80
2022-09-28T23:38:26.793Z,70.41
2022-09-28T23:41:29.591Z,71.12
2022-09-28T23:44:33.013Z,71.16
2022-09-28T23:47:37.282Z,71.87
2022-09-28T23:50:39.964Z,71.81
2022-09-28T23:53:44.364Z,71.62
2022-09-28T23:56:46.926Z,71.73
2022-09-28T23:59:49.623Z,72.75
